Time;durP1;ratioP1;P1;durP2;ratioP2;P2;SDS_P1;SDS_P2;PMS_P1;PMS_P2;Temp;Humidity;BMP_temperature;BMP_pressure;BME280_temperature;BME280_humidity;BME280_pressure;Samples;Min_cycle;Max_cycle;Signal;HPM_P1;HPM_P2
2023/03/03 00:02:17;;;;;;;49.23;25.13;;;3.50;99.90;;;;;;4992018;28;20345;-49
2023/03/03 00:04:43;;;;;;;52.10;26.27;;;3.40;99.90;;;;;;4995101;28;20217;-47
2023/03/03 00:07:14;;;;;;;49.67;24.30;;;3.50;99.90;;;;;;4992392;28;20547;-49
2023/03/03 00:09:42;;;;;;;51.50;26.20;;;3.40;99.90;;;;;;4995743;28;20324;-47
2023/03/03 00:12:23;;;;;;;46.83;25.33;;;3.50;99.90;;;;;;4995454;28;20253;-49
2023/03/03 00:14:50;;;;;;;53.00;25.17;;;3.40;99.90;;;;;;4993502;28;20201;-47
2023/03/03 00:17:22;;;;;;;50.80;24.77;;;3.40;99.90;;;;;;4992367;28;20676;-48
2023/03/03 00:19:49;;;;;;;42.90;23.47;;;3.40;99.90;;;;;;4994053;28;20255;-48
2023/03/03 00:22:27;;;;;;;44.93;23.23;;;3.40;99.90;;;;;;4993710;28;20202;-48
2023/03/03 00:24:55;;;;;;;47.83;25.30;;;3.40;99.90;;;;;;4992057;28;20213;-49
2023/03/03 00:27:29;;;;;;;48.63;25.00;;;3.40;99.90;;;;;;4991831;28;20657;-48
2023/03/03 00:29:57;;;;;;;47.60;26.03;;;3.40;99.90;;;;;;4993608;28;20197;-48
2023/03/03 00:32:26;;;;;;;43.57;23.50;;;3.40;99.90;;;;;;4993401;28;20672;-48
2023/03/03 00:34:55;;;;;;;45.77;23.73;;;3.40;99.90;;;;;;4994822;28;20195;-49
2023/03/03 00:37:31;;;;;;;44.13;22.63;;;3.40;99.90;;;;;;4990656;28;20256;-47
2023/03/03 00:40:17;;;;;;;46.93;22.13;;;3.30;99.90;;;;;;4993740;28;20205;-48
2023/03/03 00:42:50;;;;;;;40.10;21.00;;;3.30;99.90;;;;;;4989117;28;20264;-48
2023/03/03 00:45:40;;;;;;;43.43;21.57;;;3.30;99.90;;;;;;4993457;28;20241;-48
2023/03/03 00:48:26;;;;;;;43.50;21.53;;;3.30;99.90;;;;;;4989125;28;20283;-50
2023/03/03 00:50:55;;;;;;;45.83;22.33;;;3.30;99.90;;;;;;4989482;28;20204;-48
2023/03/03 00:53:23;;;;;;;42.20;20.53;;;3.30;99.90;;;;;;4992222;28;20257;-48
2023/03/03 00:55:53;;;;;;;37.13;20.10;;;3.30;99.90;;;;;;4987100;28;20643;-48
2023/03/03 00:58:21;;;;;;;44.10;22.67;;;3.30;99.90;;;;;;4993039;28;20229;-49
2023/03/03 01:00:48;;;;;;;39.90;19.60;;;3.30;99.90;;;;;;4992268;28;20203;-48
2023/03/03 01:03:18;;;;;;;35.30;18.67;;;3.30;99.90;;;;;;4992544;28;20197;-49
2023/03/03 01:05:45;;;;;;;38.40;19.53;;;3.20;99.90;;;;;;4993228;28;20220;-48
2023/03/03 01:08:12;;;;;;;41.50;19.27;;;3.20;99.90;;;;;;4992878;28;20217;-47
2023/03/03 01:10:42;;;;;;;38.87;19.47;;;3.20;99.90;;;;;;4993952;28;20553;-48
2023/03/03 01:13:11;;;;;;;34.67;18.20;;;3.30;99.90;;;;;;4988574;28;20583;-48
2023/03/03 01:15:39;;;;;;;41.07;19.83;;;3.20;99.90;;;;;;4983138;28;20271;-48
2023/03/03 01:18:06;;;;;;;32.90;19.33;;;3.10;99.90;;;;;;4993612;28;20771;-48
2023/03/03 01:20:33;;;;;;;37.33;19.37;;;3.10;99.90;;;;;;4994008;28;20209;-49
2023/03/03 01:23:00;;;;;;;32.60;19.47;;;3.10;99.90;;;;;;4992633;28;20198;-49
2023/03/03 01:25:27;;;;;;;36.90;19.43;;;3.20;99.90;;;;;;4992644;28;20271;-48
2023/03/03 01:27:54;;;;;;;37.57;19.63;;;3.20;99.90;;;;;;4991420;28;20268;-50
2023/03/03 01:30:24;;;;;;;39.97;20.30;;;3.10;99.90;;;;;;4991015;28;20255;-48
2023/03/03 01:32:51;;;;;;;36.97;18.00;;;3.10;99.90;;;;;;4991435;28;20208;-49
2023/03/03 01:35:18;;;;;;;30.80;16.97;;;3.00;99.90;;;;;;4986450;28;20194;-48
2023/03/03 01:37:46;;;;;;;34.07;20.13;;;3.00;99.90;;;;;;4989518;28;20225;-49
2023/03/03 01:40:16;;;;;;;38.00;18.20;;;3.00;99.90;;;;;;4992416;28;20201;-49
2023/03/03 01:42:47;;;;;;;35.40;18.93;;;3.10;99.90;;;;;;4989496;28;20754;-49
2023/03/03 01:45:17;;;;;;;35.97;18.20;;;3.10;99.90;;;;;;4989517;28;20263;-48
2023/03/03 01:47:53;;;;;;;35.97;18.50;;;3.10;99.90;;;;;;4989864;28;20718;-48
2023/03/03 01:50:48;;;;;;;36.60;18.57;;;3.10;99.90;;;;;;5089031;27;20534;-48
2023/03/03 01:53:19;;;;;;;34.13;17.43;;;3.10;99.90;;;;;;5088265;28;20198;-47
2023/03/03 01:55:47;;;;;;;31.63;17.13;;;3.00;99.90;;;;;;5081313;28;20668;-46
2023/03/03 01:58:18;;;;;;;30.27;16.17;;;3.10;99.90;;;;;;5078070;28;20219;-47
2023/03/03 02:00:52;;;;;;;34.23;19.03;;;3.10;99.90;;;;;;5087257;28;20198;-49
2023/03/03 02:03:21;;;;;;;38.47;16.57;;;3.00;99.90;;;;;;5081706;28;20201;-47
2023/03/03 02:05:50;;;;;;;34.53;16.70;;;3.00;99.90;;;;;;5069598;28;20206;-47
2023/03/03 02:08:21;;;;;;;31.33;14.60;;;3.00;99.90;;;;;;5072689;28;20268;-48
2023/03/03 02:10:50;;;;;;;32.67;15.83;;;2.90;99.90;;;;;;5084353;28;20197;-47
2023/03/03 02:13:17;;;;;;;36.10;16.30;;;3.00;99.90;;;;;;5077459;28;20641;-47
2023/03/03 02:15:44;;;;;;;31.03;16.40;;;3.00;99.90;;;;;;5087758;28;20576;-48
2023/03/03 02:18:14;;;;;;;32.00;16.23;;;2.90;99.90;;;;;;5085123;28;20218;-47
2023/03/03 02:20:55;;;;;;;34.80;16.43;;;2.90;99.90;;;;;;5088607;28;20252;-48
2023/03/03 02:23:27;;;;;;;27.53;15.07;;;2.90;99.90;;;;;;5081678;28;20740;-46
2023/03/03 02:26:06;;;;;;;30.20;15.17;;;2.80;99.90;;;;;;5083560;28;20203;-48
2023/03/03 02:28:34;;;;;;;29.37;15.93;;;2.80;99.90;;;;;;5075380;28;20593;-47
2023/03/03 02:31:02;;;;;;;27.40;14.93;;;2.90;99.90;;;;;;5084769;28;20194;-47
2023/03/03 02:33:29;;;;;;;30.30;15.17;;;2.80;99.90;;;;;;5081612;28;20259;-47
2023/03/03 02:35:57;;;;;;;26.20;15.00;;;2.80;99.90;;;;;;5076761;28;20199;-46
2023/03/03 02:38:29;;;;;;;28.27;14.43;;;2.80;99.90;;;;;;5074605;28;20226;-47
2023/03/03 02:41:08;;;;;;;23.63;14.27;;;2.90;99.90;;;;;;5085060;28;20202;-48
2023/03/03 02:43:42;;;;;;;29.40;14.70;;;2.80;99.90;;;;;;5082771;28;20202;-47
2023/03/03 02:46:09;;;;;;;28.50;14.37;;;2.80;99.90;;;;;;5074428;28;20198;-48
2023/03/03 02:48:36;;;;;;;26.60;15.07;;;2.80;99.90;;;;;;5080003;28;20229;-48
2023/03/03 02:51:03;;;;;;;27.20;12.77;;;2.90;99.90;;;;;;5083972;28;20207;-48
2023/03/03 02:53:30;;;;;;;26.23;14.20;;;2.90;99.90;;;;;;5086685;28;20663;-49
2023/03/03 02:55:57;;;;;;;29.43;14.80;;;2.90;99.90;;;;;;5088075;28;20199;-47
2023/03/03 02:58:25;;;;;;;29.40;14.20;;;2.90;99.90;;;;;;5084999;28;20245;-48
2023/03/03 03:00:54;;;;;;;31.27;16.27;;;2.90;99.90;;;;;;5078832;28;20199;-48
2023/03/03 03:03:21;;;;;;;26.47;13.10;;;3.10;99.90;;;;;;5054106;28;20585;-48
2023/03/03 03:05:48;;;;;;;28.13;16.33;;;3.10;99.90;;;;;;5064844;28;20226;-48
2023/03/03 03:08:15;;;;;;;34.93;15.83;;;3.10;99.90;;;;;;5065634;28;20219;-47
2023/03/03 03:10:42;;;;;;;28.87;16.67;;;3.00;99.90;;;;;;5074277;28;20233;-48
2023/03/03 03:13:09;;;;;;;33.67;16.60;;;3.00;99.90;;;;;;5074287;28;20260;-47
2023/03/03 03:15:40;;;;;;;27.13;14.70;;;3.00;99.90;;;;;;5074366;28;20209;-49
2023/03/03 03:18:07;;;;;;;26.13;14.27;;;3.00;99.90;;;;;;5063433;28;20745;-47
2023/03/03 03:20:38;;;;;;;29.00;14.93;;;2.90;99.90;;;;;;5062055;28;20553;-48
2023/03/03 03:23:06;;;;;;;29.60;16.03;;;3.00;99.90;;;;;;5072372;28;20209;-47
2023/03/03 03:25:33;;;;;;;31.77;17.97;;;3.00;99.90;;;;;;5073970;28;20672;-47
2023/03/03 03:28:00;;;;;;;32.10;16.90;;;3.00;99.90;;;;;;5071614;28;20264;-47
2023/03/03 03:30:27;;;;;;;33.23;16.80;;;3.10;99.90;;;;;;5073722;28;20272;-48
2023/03/03 03:32:55;;;;;;;36.37;18.37;;;3.00;99.90;;;;;;5074009;28;20617;-48
2023/03/03 03:35:22;;;;;;;29.93;16.10;;;3.10;99.90;;;;;;5068572;28;20203;-47
2023/03/03 03:37:49;;;;;;;29.63;14.60;;;3.00;99.90;;;;;;5055607;28;20218;-48
2023/03/03 03:40:16;;;;;;;31.03;16.90;;;3.00;99.90;;;;;;5072851;28;20257;-47
2023/03/03 03:42:45;;;;;;;32.30;16.73;;;3.10;99.90;;;;;;5073650;28;20199;-48
2023/03/03 03:45:14;;;;;;;30.83;17.97;;;3.10;99.90;;;;;;5073991;28;20270;-49
2023/03/03 03:47:44;;;;;;;29.23;17.10;;;3.10;99.90;;;;;;5071912;28;20223;-47
2023/03/03 03:50:13;;;;;;;35.13;18.33;;;3.10;99.90;;;;;;5067761;28;20280;-49
2023/03/03 03:52:42;;;;;;;30.37;15.97;;;3.10;99.90;;;;;;5062319;28;20215;-48
2023/03/03 03:55:10;;;;;;;30.03;16.57;;;3.00;99.90;;;;;;5067775;28;20286;-47
2023/03/03 03:57:37;;;;;;;24.20;14.23;;;3.00;99.90;;;;;;5072021;28;20198;-47
2023/03/03 04:00:05;;;;;;;33.07;16.10;;;3.00;99.90;;;;;;5073378;28;20203;-48
2023/03/03 04:02:31;;;;;;;31.53;16.97;;;2.90;99.90;;;;;;5073134;28;20260;-48
2023/03/03 04:04:58;;;;;;;36.63;16.67;;;2.80;99.90;;;;;;5071233;28;20199;-48
2023/03/03 04:07:27;;;;;;;27.90;16.60;;;2.70;99.90;;;;;;5073465;28;20252;-48
2023/03/03 04:09:54;;;;;;;33.37;17.47;;;2.70;99.90;;;;;;5064679;28;20215;-48
2023/03/03 04:12:21;;;;;;;30.83;17.13;;;2.70;99.90;;;;;;5068292;28;20207;-47
2023/03/03 04:14:47;;;;;;;39.50;19.40;;;2.60;99.90;;;;;;5073248;28;20195;-47
2023/03/03 04:17:17;;;;;;;34.10;19.17;;;2.60;99.90;;;;;;5072995;28;20260;-46
2023/03/03 04:19:44;;;;;;;43.33;20.43;;;2.70;99.90;;;;;;5071556;28;20222;-48
2023/03/03 04:22:12;;;;;;;42.07;21.40;;;2.60;99.90;;;;;;5073228;28;20203;-47
2023/03/03 04:24:41;;;;;;;53.93;23.60;;;2.60;99.90;;;;;;5072735;28;20243;-47
2023/03/03 04:27:08;;;;;;;39.67;20.83;;;2.60;99.90;;;;;;5066633;28;20201;-47
2023/03/03 04:29:35;;;;;;;44.00;23.17;;;2.70;99.90;;;;;;5062327;28;20592;-48
2023/03/03 04:32:02;;;;;;;51.77;24.93;;;2.70;99.90;;;;;;5072786;28;20840;-47
2023/03/03 04:34:29;;;;;;;50.70;24.97;;;2.70;99.90;;;;;;5070751;28;20661;-47
2023/03/03 04:36:56;;;;;;;45.50;22.40;;;2.70;99.90;;;;;;5072446;28;20245;-48
2023/03/03 04:39:23;;;;;;;42.53;22.80;;;2.70;99.90;;;;;;5064773;28;20219;-48
2023/03/03 04:41:51;;;;;;;48.80;23.27;;;2.80;99.90;;;;;;5072468;28;20202;-47
2023/03/03 04:44:18;;;;;;;50.80;23.77;;;2.80;99.90;;;;;;5062489;28;20202;-48
2023/03/03 04:46:45;;;;;;;44.60;22.20;;;2.80;99.90;;;;;;5071615;28;20636;-47
2023/03/03 04:49:12;;;;;;;39.67;20.40;;;2.80;99.90;;;;;;5068301;28;20230;-48
2023/03/03 04:51:39;;;;;;;34.03;17.60;;;2.80;99.90;;;;;;5068014;28;20680;-48
2023/03/03 04:54:06;;;;;;;35.47;17.50;;;2.80;99.90;;;;;;5072098;28;20619;-48
2023/03/03 04:56:33;;;;;;;37.07;17.37;;;2.80;99.90;;;;;;5072342;28;20255;-48
2023/03/03 04:59:02;;;;;;;33.63;17.40;;;2.80;99.90;;;;;;5061021;28;20284;-48
2023/03/03 05:01:28;;;;;;;35.53;16.97;;;2.90;99.90;;;;;;5064466;28;20202;-48
2023/03/03 05:03:55;;;;;;;45.30;20.30;;;2.90;99.90;;;;;;5063501;28;20203;-47
2023/03/03 05:06:23;;;;;;;35.57;19.30;;;2.90;99.90;;;;;;5065789;28;20284;-48
2023/03/03 05:08:50;;;;;;;28.80;17.03;;;2.90;99.90;;;;;;5065247;28;20763;-48
2023/03/03 05:11:17;;;;;;;38.43;20.13;;;2.90;99.90;;;;;;5068378;28;20275;-48
2023/03/03 05:13:44;;;;;;;35.87;18.87;;;2.80;99.90;;;;;;5064445;28;20229;-47
2023/03/03 05:16:13;;;;;;;38.97;18.70;;;2.80;99.90;;;;;;5055585;28;20491;-48
2023/03/03 05:18:40;;;;;;;39.73;19.27;;;2.90;99.90;;;;;;5060636;28;20223;-47
2023/03/03 05:21:07;;;;;;;38.87;19.57;;;2.90;99.90;;;;;;5071619;28;20611;-47
2023/03/03 05:23:34;;;;;;;37.87;20.53;;;2.90;99.90;;;;;;5072651;28;20252;-48
2023/03/03 05:26:01;;;;;;;38.43;21.73;;;2.80;99.90;;;;;;5071825;28;20201;-47
2023/03/03 05:28:28;;;;;;;32.30;18.40;;;2.80;99.90;;;;;;5069631;28;20218;-49
2023/03/03 05:30:55;;;;;;;38.63;20.60;;;2.80;99.90;;;;;;5070718;28;20642;-47
2023/03/03 05:33:24;;;;;;;40.03;20.10;;;2.90;99.90;;;;;;5060047;28;20665;-48
2023/03/03 05:35:54;;;;;;;36.57;18.80;;;2.90;99.90;;;;;;5052405;28;20239;-48
2023/03/03 05:38:21;;;;;;;39.07;19.63;;;2.90;99.90;;;;;;5068224;28;20226;-46
2023/03/03 05:40:49;;;;;;;40.20;19.50;;;2.80;99.90;;;;;;5074265;28;20717;-47
2023/03/03 05:43:16;;;;;;;45.43;21.60;;;2.80;99.90;;;;;;5087636;28;20579;-48
2023/03/03 05:45:43;;;;;;;41.63;21.17;;;2.90;99.90;;;;;;5071377;28;20684;-48
2023/03/03 05:48:11;;;;;;;38.23;19.67;;;2.80;99.90;;;;;;5068557;28;20222;-47
2023/03/03 05:50:40;;;;;;;33.30;18.40;;;2.80;99.90;;;;;;5065687;28;20317;-47
2023/03/03 05:53:06;;;;;;;38.93;18.93;;;2.90;99.90;;;;;;5064427;28;20206;-47
2023/03/03 05:55:33;;;;;;;32.57;19.13;;;2.90;99.90;;;;;;5068354;28;20243;-47
2023/03/03 05:58:00;;;;;;;35.83;17.37;;;2.80;99.90;;;;;;5068821;28;20237;-46
2023/03/03 06:00:27;;;;;;;34.80;18.73;;;2.80;99.90;;;;;;5067338;28;20536;-47
2023/03/03 06:02:54;;;;;;;31.10;16.90;;;2.80;99.90;;;;;;5070687;28;20820;-45
2023/03/03 06:05:21;;;;;;;34.17;19.23;;;2.80;99.90;;;;;;5060909;28;20200;-48
2023/03/03 06:07:50;;;;;;;34.72;20.30;;;2.80;99.90;;;;;;5063240;28;20509;-47
2023/03/03 06:10:18;;;;;;;36.43;20.50;;;2.90;99.90;;;;;;5071229;28;20279;-47
2023/03/03 06:12:47;;;;;;;39.93;19.93;;;2.90;99.90;;;;;;5069432;28;20206;-48
2023/03/03 06:15:14;;;;;;;38.73;19.83;;;2.90;99.90;;;;;;5069754;28;20194;-46
2023/03/03 06:17:41;;;;;;;42.53;20.80;;;2.90;99.90;;;;;;5061520;28;20227;-48
2023/03/03 06:20:09;;;;;;;36.47;18.93;;;3.00;99.90;;;;;;5070824;28;20191;-48
2023/03/03 06:22:36;;;;;;;42.70;20.90;;;3.00;99.90;;;;;;5069531;28;20210;-48
2023/03/03 06:25:11;;;;;;;35.27;18.73;;;3.00;99.90;;;;;;5071124;28;20221;-47
2023/03/03 06:27:38;;;;;;;35.93;19.03;;;3.00;99.90;;;;;;5069338;28;20203;-48
2023/03/03 06:30:06;;;;;;;35.87;19.03;;;3.00;99.90;;;;;;5070908;28;20209;-47
2023/03/03 06:32:34;;;;;;;33.33;19.13;;;3.10;99.90;;;;;;5061854;28;20256;-48
2023/03/03 06:35:01;;;;;;;42.73;21.20;;;3.20;99.90;;;;;;5071207;28;20199;-48
2023/03/03 06:37:28;;;;;;;40.83;20.30;;;3.20;99.90;;;;;;5069834;28;20214;-46
2023/03/03 06:39:55;;;;;;;41.60;20.43;;;3.20;99.90;;;;;;5067591;28;20276;-47
2023/03/03 06:42:23;;;;;;;39.37;21.03;;;3.20;99.90;;;;;;5072963;28;20636;-47
2023/03/03 06:44:51;;;;;;;42.73;21.27;;;3.30;99.90;;;;;;5074508;28;20193;-47
2023/03/03 06:47:18;;;;;;;60.23;24.10;;;3.30;99.90;;;;;;5055009;28;20661;-47
2023/03/03 06:49:45;;;;;;;37.53;21.20;;;3.30;99.90;;;;;;5059476;28;20275;-47
2023/03/03 06:52:14;;;;;;;38.13;20.60;;;3.30;99.90;;;;;;5074091;28;20201;-48
2023/03/03 06:54:41;;;;;;;39.60;21.77;;;3.40;99.90;;;;;;5066583;28;20278;-47
2023/03/03 06:57:17;;;;;;;36.07;18.97;;;3.50;99.90;;;;;;5058488;28;20200;-47
2023/03/03 06:59:48;;;;;;;33.63;19.10;;;3.60;99.90;;;;;;5070605;28;20309;-47
2023/03/03 07:02:17;;;;;;;49.23;24.90;;;3.60;99.90;;;;;;5074372;28;20202;-49
2023/03/03 07:04:46;;;;;;;36.17;21.67;;;3.60;99.90;;;;;;5071622;28;20289;-47
2023/03/03 07:07:19;;;;;;;40.70;21.10;;;3.60;99.90;;;;;;5073679;28;20225;-47
2023/03/03 07:09:48;;;;;;;43.10;21.20;;;3.60;99.90;;;;;;5074237;28;20290;-47
2023/03/03 07:12:22;;;;;;;38.83;21.60;;;3.60;99.90;;;;;;5074187;28;20204;-47
2023/03/03 07:14:55;;;;;;;42.20;19.73;;;3.60;99.90;;;;;;5073192;28;20210;-47
2023/03/03 07:17:25;;;;;;;44.03;23.77;;;3.70;99.90;;;;;;5073025;28;20206;-47
2023/03/03 07:19:53;;;;;;;48.50;22.43;;;3.70;99.90;;;;;;5068874;28;20260;-48
2023/03/03 07:22:24;;;;;;;43.27;22.23;;;3.70;99.90;;;;;;5073770;28;20199;-48
2023/03/03 07:24:53;;;;;;;42.40;23.00;;;3.70;99.90;;;;;;5065118;28;20208;-50
2023/03/03 07:27:24;;;;;;;46.43;22.70;;;3.70;99.90;;;;;;5071755;28;20206;-47
2023/03/03 07:29:54;;;;;;;43.33;23.77;;;3.70;99.90;;;;;;5064338;28;20199;-48
2023/03/03 07:32:31;;;;;;;41.83;22.80;;;3.70;99.90;;;;;;5071313;28;20198;-48
2023/03/03 07:34:58;;;;;;;42.73;23.40;;;3.70;99.90;;;;;;5064743;28;20207;-48
2023/03/03 07:37:30;;;;;;;41.27;22.50;;;3.70;99.90;;;;;;5065890;28;20209;-48
2023/03/03 07:39:58;;;;;;;41.53;22.13;;;3.80;99.90;;;;;;5065420;28;20290;-48
2023/03/03 07:42:28;;;;;;;45.00;24.07;;;3.80;99.90;;;;;;5073914;28;20206;-48
2023/03/03 07:44:58;;;;;;;45.33;24.77;;;3.90;99.90;;;;;;5064986;28;20204;-47
2023/03/03 07:47:27;;;;;;;46.37;24.00;;;4.00;99.90;;;;;;5065431;28;20204;-47
2023/03/03 07:49:55;;;;;;;53.07;23.93;;;4.00;99.90;;;;;;5070404;28;20746;-48
2023/03/03 07:52:28;;;;;;;45.40;25.20;;;4.10;99.90;;;;;;5068668;28;20203;-48
2023/03/03 07:54:57;;;;;;;51.93;26.83;;;4.10;99.90;;;;;;5065071;28;20198;-47
2023/03/03 07:57:26;;;;;;;49.73;25.20;;;4.20;99.90;;;;;;5073276;28;20286;-48
2023/03/03 08:00:00;;;;;;;46.70;25.20;;;4.20;99.90;;;;;;5073320;28;20294;-46
2023/03/03 08:02:39;;;;;;;51.80;27.53;;;4.20;99.90;;;;;;5071000;28;20281;-47
2023/03/03 08:05:36;;;;;;;45.60;24.67;;;4.30;99.90;;;;;;5067118;28;20213;-49
2023/03/03 08:08:19;;;;;;;54.53;27.03;;;4.40;99.90;;;;;;5008521;28;20750;-48
2023/03/03 08:10:48;;;;;;;48.47;24.63;;;4.30;99.90;;;;;;5057488;28;20774;-48
2023/03/03 08:13:19;;;;;;;49.73;26.70;;;4.20;99.90;;;;;;5073012;28;20214;-47
2023/03/03 08:15:51;;;;;;;54.00;26.83;;;4.30;99.90;;;;;;5072910;28;20211;-48
2023/03/03 08:18:30;;;;;;;50.30;27.63;;;4.30;99.90;;;;;;5073287;28;20223;-48
2023/03/03 08:21:00;;;;;;;52.87;26.60;;;4.30;99.90;;;;;;5067811;28;20735;-46
2023/03/03 08:23:28;;;;;;;46.13;26.13;;;4.30;99.90;;;;;;5052857;28;20214;-46
2023/03/03 08:25:55;;;;;;;50.67;28.03;;;4.30;99.90;;;;;;5056920;28;20203;-47
2023/03/03 08:28:22;;;;;;;47.53;24.57;;;4.40;99.90;;;;;;5065789;28;20224;-47
2023/03/03 08:30:52;;;;;;;48.77;25.97;;;4.40;99.90;;;;;;5072575;28;20295;-47
2023/03/03 08:33:19;;;;;;;46.97;26.47;;;4.40;99.90;;;;;;5072593;28;20205;-47
2023/03/03 08:35:47;;;;;;;50.87;26.07;;;4.50;99.90;;;;;;5072644;28;20256;-48
2023/03/03 08:38:16;;;;;;;49.73;26.53;;;4.60;99.90;;;;;;5065936;28;20240;-47
2023/03/03 08:40:43;;;;;;;49.30;25.03;;;4.60;99.90;;;;;;5052419;28;20253;-47
2023/03/03 08:43:15;;;;;;;52.47;27.37;;;4.60;99.90;;;;;;5066398;28;20549;-48
2023/03/03 08:45:43;;;;;;;53.60;29.17;;;4.70;99.90;;;;;;5072435;28;20203;-47
2023/03/03 08:48:12;;;;;;;45.17;24.43;;;4.60;99.90;;;;;;5070087;28;20290;-48
2023/03/03 08:50:39;;;;;;;56.67;29.27;;;4.70;99.90;;;;;;5058514;28;20487;-48
2023/03/03 08:53:06;;;;;;;47.50;26.90;;;4.70;99.90;;;;;;5069646;28;20565;-48
2023/03/03 08:55:33;;;;;;;48.07;28.40;;;4.60;99.90;;;;;;5072197;28;20199;-47
2023/03/03 08:58:00;;;;;;;52.33;26.83;;;4.70;99.90;;;;;;5068356;28;20769;-48
2023/03/03 09:00:28;;;;;;;53.33;27.40;;;4.70;99.90;;;;;;5069817;28;20224;-47
2023/03/03 09:02:55;;;;;;;51.97;27.73;;;4.90;99.90;;;;;;5060510;28;20262;-47
2023/03/03 09:05:24;;;;;;;50.42;28.98;;;4.80;99.90;;;;;;5050801;28;20460;-48
2023/03/03 09:07:52;;;;;;;55.87;29.13;;;4.80;99.90;;;;;;5071263;28;20276;-47
2023/03/03 09:10:26;;;;;;;53.30;27.37;;;4.90;99.90;;;;;;5071988;28;20211;-48
2023/03/03 09:12:56;;;;;;;51.13;25.37;;;4.80;99.90;;;;;;5072312;28;20202;-48
2023/03/03 09:15:25;;;;;;;55.53;29.70;;;4.80;99.90;;;;;;5051017;28;20294;-47
2023/03/03 09:17:52;;;;;;;48.97;26.57;;;4.90;99.90;;;;;;5066392;28;20226;-47
2023/03/03 09:20:32;;;;;;;55.63;29.40;;;4.90;99.90;;;;;;5063018;28;20257;-47
2023/03/03 09:23:16;;;;;;;50.67;24.57;;;4.90;99.90;;;;;;5056035;28;20203;-47
2023/03/03 09:25:43;;;;;;;52.60;27.37;;;4.90;99.90;;;;;;5059808;28;20665;-48
2023/03/03 09:28:23;;;;;;;53.80;28.57;;;5.00;99.90;;;;;;5061633;28;20269;-47
2023/03/03 09:30:51;;;;;;;55.97;26.37;;;5.10;99.90;;;;;;5058353;28;20216;-49
2023/03/03 09:33:28;;;;;;;52.80;25.67;;;5.10;99.90;;;;;;5065553;28;20640;-47
2023/03/03 09:36:03;;;;;;;49.33;28.60;;;5.20;99.90;;;;;;5067074;28;20260;-47
2023/03/03 09:38:32;;;;;;;54.00;26.63;;;5.30;99.90;;;;;;5071861;28;20266;-48
2023/03/03 09:41:27;;;;;;;48.33;26.13;;;5.40;99.90;;;;;;5068148;28;20207;-47
2023/03/03 09:44:26;;;;;;;51.83;27.27;;;5.30;99.90;;;;;;5065665;28;20746;-50
2023/03/03 09:47:05;;;;;;;50.07;27.27;;;5.20;99.90;;;;;;5071291;28;20201;-48
2023/03/03 09:49:34;;;;;;;50.70;26.73;;;5.20;99.90;;;;;;5062467;28;20230;-48
2023/03/03 09:52:21;;;;;;;53.73;29.00;;;5.20;99.90;;;;;;5063958;28;20219;-48
2023/03/03 09:55:01;;;;;;;53.03;26.43;;;5.30;99.90;;;;;;5065506;28;20208;-48
2023/03/03 09:57:40;;;;;;;51.33;27.47;;;5.40;99.90;;;;;;5051522;28;20272;-47
2023/03/03 10:00:26;;;;;;;56.10;28.10;;;5.40;99.90;;;;;;5054607;28;20265;-47
2023/03/03 10:03:09;;;;;;;49.50;25.10;;;5.40;99.90;;;;;;5071674;28;20572;-47
2023/03/03 10:05:45;;;;;;;52.20;27.33;;;5.40;99.90;;;;;;5071702;28;20206;-47
2023/03/03 10:08:43;;;;;;;49.90;26.73;;;5.40;99.90;;;;;;5071500;28;20222;-48
2023/03/03 10:11:18;;;;;;;55.03;29.30;;;5.40;99.90;;;;;;5073628;28;20278;-47
2023/03/03 10:14:07;;;;;;;49.40;27.03;;;5.40;99.90;;;;;;5073174;28;20297;-48
2023/03/03 10:16:58;;;;;;;54.47;27.00;;;5.40;99.90;;;;;;5075332;28;20200;-47
2023/03/03 10:19:38;;;;;;;45.70;23.63;;;5.60;99.90;;;;;;5075518;28;20284;-48
2023/03/03 10:22:19;;;;;;;54.53;26.20;;;5.80;99.90;;;;;;5075359;28;20207;-49
2023/03/03 10:25:02;;;;;;;52.37;26.63;;;5.70;99.90;;;;;;5072011;28;20207;-47
2023/03/03 10:27:51;;;;;;;54.97;27.30;;;5.70;99.90;;;;;;5075235;28;20742;-47
2023/03/03 10:30:25;;;;;;;50.03;29.37;;;5.90;99.90;;;;;;5069196;28;20261;-47
2023/03/03 10:32:59;;;;;;;57.17;29.57;;;5.90;99.90;;;;;;5074754;28;20226;-47
2023/03/03 10:35:43;;;;;;;51.37;26.17;;;5.90;99.90;;;;;;5075055;28;20208;-49
2023/03/03 10:38:33;;;;;;;60.23;29.53;;;6.00;99.90;;;;;;5075158;28;20227;-47
2023/03/03 10:41:13;;;;;;;55.40;29.13;;;5.90;99.90;;;;;;5075117;28;20257;-47
2023/03/03 10:44:03;;;;;;;75.23;36.03;;;5.50;99.90;;;;;;5074833;28;20263;-48
2023/03/03 10:46:43;;;;;;;59.60;29.17;;;5.50;99.90;;;;;;5070557;28;20578;-47
2023/03/03 10:49:20;;;;;;;59.47;29.13;;;5.60;99.90;;;;;;5065775;28;20230;-47
2023/03/03 10:52:09;;;;;;;53.37;29.53;;;5.60;99.90;;;;;;5071395;28;20219;-47
2023/03/03 10:54:57;;;;;;;54.67;27.33;;;5.60;99.90;;;;;;5073184;28;20206;-48
2023/03/03 10:57:34;;;;;;;57.63;30.67;;;5.60;99.90;;;;;;5074575;28;20672;-49
2023/03/03 11:00:16;;;;;;;60.50;28.60;;;5.60;99.90;;;;;;5073375;28;20257;-47
2023/03/03 11:02:59;;;;;;;59.10;29.37;;;5.60;99.90;;;;;;5071451;28;20201;-47
2023/03/03 11:05:36;;;;;;;57.53;29.40;;;5.70;99.90;;;;;;5074267;28;20252;-47
2023/03/03 11:08:08;;;;;;;52.93;27.53;;;5.80;99.90;;;;;;5074400;28;20605;-48
2023/03/03 11:10:48;;;;;;;58.97;31.00;;;5.90;99.90;;;;;;5071311;28;20203;-47
2023/03/03 11:13:24;;;;;;;55.83;27.47;;;6.00;99.90;;;;;;5071667;28;20213;-47
2023/03/03 11:16:15;;;;;;;56.33;29.33;;;6.10;99.90;;;;;;5074467;28;20207;-46
2023/03/03 11:19:00;;;;;;;62.03;26.87;;;6.20;99.90;;;;;;5070016;28;20219;-48
2023/03/03 11:21:33;;;;;;;51.97;27.60;;;6.10;99.90;;;;;;5053651;28;20211;-47
2023/03/03 11:24:22;;;;;;;54.00;27.17;;;6.20;99.90;;;;;;5066285;28;20274;-48
2023/03/03 11:27:23;;;;;;;48.80;26.33;;;6.30;99.90;;;;;;5074097;28;20344;-47
2023/03/03 11:30:15;;;;;;;52.33;27.17;;;6.40;99.90;;;;;;5068968;28;20191;-47
2023/03/03 11:32:53;;;;;;;53.53;28.20;;;6.50;99.90;;;;;;5055133;28;20234;-48
2023/03/03 11:35:26;;;;;;;55.80;30.10;;;6.50;99.90;;;;;;5067710;28;20643;-48
2023/03/03 11:38:02;;;;;;;51.50;26.87;;;6.30;99.90;;;;;;5073281;28;20642;-48
2023/03/03 11:40:37;;;;;;;51.17;28.03;;;6.50;99.90;;;;;;5073979;28;20198;-47
2023/03/03 11:43:13;;;;;;;56.43;30.67;;;6.60;99.90;;;;;;5072557;28;20247;-48
2023/03/03 11:45:48;;;;;;;54.03;28.83;;;6.70;99.90;;;;;;5073808;28;20199;-48
2023/03/03 11:48:21;;;;;;;56.33;26.90;;;6.90;99.90;;;;;;5069952;28;20699;-48
2023/03/03 11:50:55;;;;;;;47.70;25.30;;;6.90;99.90;;;;;;5073607;28;20196;-47
2023/03/03 11:53:36;;;;;;;53.27;28.17;;;6.90;99.90;;;;;;5063720;28;20219;-47
2023/03/03 11:56:14;;;;;;;50.57;26.90;;;6.70;99.90;;;;;;5066226;28;20202;-47
2023/03/03 11:58:45;;;;;;;50.23;25.77;;;6.80;99.90;;;;;;5073434;28;20222;-47
2023/03/03 12:01:22;;;;;;;56.33;27.30;;;7.00;99.90;;;;;;5073447;28;20649;-47
2023/03/03 12:03:54;;;;;;;46.70;26.53;;;7.10;99.90;;;;;;5070892;28;20276;-49
2023/03/03 12:06:27;;;;;;;50.63;28.13;;;7.10;99.90;;;;;;5073370;28;20281;-48
2023/03/03 12:09:13;;;;;;;53.10;26.13;;;7.00;99.90;;;;;;5068970;28;20218;-47
2023/03/03 12:11:48;;;;;;;61.97;31.67;;;7.00;99.90;;;;;;5069353;28;20705;-48
2023/03/03 12:14:30;;;;;;;53.67;27.77;;;7.10;99.90;;;;;;5067051;28;20202;-48
2023/03/03 12:17:01;;;;;;;51.57;28.17;;;6.90;99.90;;;;;;5072992;28;20672;-49
2023/03/03 12:19:38;;;;;;;53.30;28.80;;;6.90;99.90;;;;;;5064808;28;20317;-48
2023/03/03 12:22:20;;;;;;;56.90;29.50;;;6.90;99.90;;;;;;5053275;28;20203;-48
2023/03/03 12:25:15;;;;;;;49.17;28.50;;;7.20;99.90;;;;;;5057090;28;20533;-48
2023/03/03 12:27:50;;;;;;;50.57;27.13;;;7.20;99.90;;;;;;5072842;28;20244;-47
2023/03/03 12:30:27;;;;;;;52.17;28.00;;;7.30;99.90;;;;;;5072648;28;20823;-47
2023/03/03 12:33:17;;;;;;;57.17;30.40;;;7.20;99.90;;;;;;5072039;28;20668;-48
2023/03/03 12:35:54;;;;;;;49.43;27.83;;;7.20;99.90;;;;;;5070395;28;20202;-53
2023/03/03 12:38:35;;;;;;;59.27;30.57;;;7.20;99.90;;;;;;5052459;28;20224;-47
2023/03/03 12:41:12;;;;;;;51.13;27.77;;;7.20;99.90;;;;;;5063914;28;20252;-49
2023/03/03 12:43:58;;;;;;;54.43;30.07;;;7.20;99.90;;;;;;5071416;28;20209;-47
2023/03/03 12:46:35;;;;;;;55.97;29.97;;;7.10;99.90;;;;;;5072658;28;20264;-47
2023/03/03 12:49:04;;;;;;;52.23;28.23;;;7.10;99.90;;;;;;5072214;28;20358;-47
2023/03/03 12:51:40;;;;;;;56.00;28.97;;;7.30;99.90;;;;;;5072451;28;20279;-47
2023/03/03 12:54:42;;;;;;;62.67;28.97;;;7.30;99.90;;;;;;5066522;28;20202;-48
2023/03/03 12:57:22;;;;;;;54.67;29.53;;;7.30;99.90;;;;;;5057033;28;20665;-48
2023/03/03 13:00:05;;;;;;;52.57;27.20;;;7.20;99.90;;;;;;5071948;28;20198;-47
2023/03/03 13:02:44;;;;;;;48.33;27.30;;;7.10;99.90;;;;;;5070298;28;20204;-47